createdAt,value
2018-04-15T00:00:23.987Z,69.10
2018-04-15T00:01:23.991Z,69.60
2018-04-15T00:02:23.982Z,65.80
2018-04-15T00:03:44.944Z,69.00
2018-04-15T00:04:44.957Z,68.80
2018-04-15T00:05:23.960Z,71.40
2018-04-15T00:06:23.946Z,68.40
2018-04-15T00:07:23.901Z,69.10
2018-04-15T00:08:44.871Z,69.00
2018-04-15T00:09:44.844Z,69.20
2018-04-15T00:10:23.844Z,72.50
2018-04-15T00:11:23.833Z,69.10
2018-04-15T00:12:23.804Z,69.90
2018-04-15T00:13:44.780Z,67.10
2018-04-15T00:14:44.761Z,68.00
2018-04-15T00:15:23.768Z,69.00
2018-04-15T00:16:23.732Z,67.70
2018-04-15T00:17:23.706Z,66.90
2018-04-15T00:18:44.691Z,64.60
2018-04-15T00:19:44.752Z,66.90
2018-04-15T00:20:23.679Z,69.20
2018-04-15T00:21:23.660Z,65.30
2018-04-15T00:22:23.641Z,66.90
2018-04-15T00:23:44.623Z,64.70
2018-04-15T00:24:44.619Z,65.80
2018-04-15T00:25:23.602Z,67.40
2018-04-15T00:26:23.563Z,68.10
2018-04-15T00:27:23.558Z,65.00
2018-04-15T00:28:44.546Z,69.70
2018-04-15T00:29:44.516Z,69.30
2018-04-15T00:30:23.557Z,67.60
2018-04-15T00:31:23.481Z,70.00
2018-04-15T00:32:23.471Z,65.50
2018-04-15T00:33:44.460Z,64.30
2018-04-15T00:34:44.447Z,66.60
2018-04-15T00:35:23.418Z,66.50
2018-04-15T00:36:23.405Z,64.70
2018-04-15T00:37:23.393Z,67.00
2018-04-15T00:38:44.400Z,66.80
2018-04-15T00:39:44.364Z,67.80
2018-04-15T00:40:23.332Z,67.10
2018-04-15T00:41:23.356Z,65.50
2018-04-15T00:42:23.305Z,64.20
2018-04-15T00:43:44.296Z,64.80
2018-04-15T00:44:44.279Z,63.10
2018-04-15T00:45:23.292Z,70.20
2018-04-15T00:46:23.234Z,66.70
2018-04-15T00:47:23.223Z,64.60
2018-04-15T00:48:44.240Z,66.20
2018-04-15T00:49:44.192Z,62.90
2018-04-15T00:50:23.200Z,67.30
2018-04-15T00:51:23.198Z,66.80
2018-04-15T00:52:23.153Z,66.40
2018-04-15T00:53:44.129Z,68.10
2018-04-15T00:54:44.114Z,65.60
2018-04-15T00:55:23.085Z,65.00
2018-04-15T00:56:23.123Z,64.90
2018-04-15T00:57:23.072Z,65.00
2018-04-15T00:58:44.040Z,61.60
2018-04-15T00:59:44.056Z,64.20
2018-04-15T01:00:23.046Z,66.90
2018-04-15T01:01:23.015Z,66.00
2018-04-15T01:02:22.994Z,65.10
2018-04-15T01:03:44.072Z,69.00
2018-04-15T01:04:43.945Z,65.10
2018-04-15T01:05:23.044Z,71.30
2018-04-15T01:06:22.920Z,66.50
2018-04-15T01:07:22.903Z,68.40
2018-04-15T01:08:43.891Z,64.40
2018-04-15T01:09:43.872Z,71.70
2018-04-15T01:10:23.762Z,66.90
2018-04-15T01:11:22.835Z,64.00
2018-04-15T01:12:22.825Z,63.80
2018-04-15T01:13:43.818Z,63.60
2018-04-15T01:14:43.809Z,66.70
2018-04-15T01:15:22.901Z,66.70
2018-04-15T01:16:22.755Z,62.10
2018-04-15T01:17:22.764Z,63.90
2018-04-15T01:18:43.728Z,63.80
2018-04-15T01:19:43.703Z,67.90
2018-04-15T01:20:22.741Z,66.30
2018-04-15T01:21:22.673Z,70.40
2018-04-15T01:22:22.690Z,67.30
2018-04-15T01:23:43.746Z,66.00
2018-04-15T01:24:43.638Z,65.50
2018-04-15T01:25:22.618Z,61.40
2018-04-15T01:26:22.615Z,63.90
2018-04-15T01:27:22.581Z,68.70
2018-04-15T01:28:43.558Z,65.80
2018-04-15T01:29:43.539Z,66.10
2018-04-15T01:30:22.527Z,66.40
2018-04-15T01:31:22.507Z,66.50
2018-04-15T01:32:22.506Z,73.00
2018-04-15T01:33:43.543Z,79.90
2018-04-15T01:34:43.509Z,74.90
2018-04-15T01:35:22.485Z,77.60
2018-04-15T01:36:22.449Z,78.70
2018-04-15T01:37:22.401Z,72.60
2018-04-15T01:38:43.419Z,75.00
2018-04-15T01:39:43.405Z,80.30
2018-04-15T01:40:22.363Z,70.60
2018-04-15T01:41:22.346Z,76.70
2018-04-15T01:42:22.351Z,68.70
2018-04-15T01:43:43.338Z,72.70
2018-04-15T01:44:43.298Z,71.90
2018-04-15T01:45:22.277Z,83.20
2018-04-15T01:46:22.258Z,79.30
2018-04-15T01:47:22.262Z,77.00
2018-04-15T01:48:43.246Z,76.20
2018-04-15T01:49:43.217Z,69.60
2018-04-15T01:50:22.195Z,69.50
2018-04-15T01:51:22.188Z,71.30
2018-04-15T01:52:22.166Z,71.80
2018-04-15T01:53:43.155Z,74.40
2018-04-15T01:54:43.141Z,68.90
2018-04-15T01:55:22.139Z,70.00
2018-04-15T01:56:22.111Z,69.40
2018-04-15T01:57:22.140Z,72.00
2018-04-15T01:58:43.087Z,76.20
2018-04-15T01:59:43.087Z,70.60
2018-04-15T02:00:22.051Z,74.50
2018-04-15T02:01:22.014Z,72.90
2018-04-15T02:02:22.003Z,71.80
2018-04-15T02:03:43.004Z,70.60
2018-04-15T02:04:42.969Z,72.90
2018-04-15T02:05:21.962Z,68.20
2018-04-15T02:06:21.940Z,76.60
2018-04-15T02:07:21.931Z,74.30
2018-04-15T02:08:42.907Z,78.40
2018-04-15T02:09:42.896Z,72.00
2018-04-15T02:10:21.884Z,76.00
2018-04-15T02:11:21.869Z,74.50
2018-04-15T02:12:21.841Z,78.80
2018-04-15T02:13:42.834Z,72.00
2018-04-15T02:14:42.822Z,81.20
2018-04-15T02:15:21.795Z,79.90
2018-04-15T02:16:21.798Z,79.80
2018-04-15T02:17:21.761Z,82.10
2018-04-15T02:18:42.752Z,82.50
2018-04-15T02:19:42.745Z,83.50
2018-04-15T02:20:21.716Z,83.80
2018-04-15T02:21:21.721Z,90.40
2018-04-15T02:22:21.685Z,88.00
2018-04-15T02:23:42.685Z,84.20
2018-04-15T02:24:42.653Z,87.10
2018-04-15T02:25:21.632Z,92.60
2018-04-15T02:26:21.619Z,85.30
2018-04-15T02:27:21.627Z,92.70
2018-04-15T02:28:42.597Z,90.10
2018-04-15T02:29:42.583Z,89.70
2018-04-15T02:30:21.577Z,92.40
2018-04-15T02:31:21.541Z,94.40
2018-04-15T02:32:21.527Z,92.90
2018-04-15T02:33:42.511Z,89.50
2018-04-15T02:34:42.495Z,90.30
2018-04-15T02:35:21.468Z,96.80
2018-04-15T02:36:21.462Z,94.80
2018-04-15T02:37:21.439Z,93.80
2018-04-15T02:38:42.431Z,98.50
2018-04-15T02:39:42.425Z,98.50
2018-04-15T02:40:21.400Z,97.80
2018-04-15T02:41:21.403Z,94.60
2018-04-15T02:42:21.392Z,98.10
2018-04-15T02:43:42.373Z,96.20
2018-04-15T02:44:42.330Z,102.40
2018-04-15T02:45:21.352Z,100.90
2018-04-15T02:46:21.298Z,100.00
2018-04-15T02:47:21.290Z,96.20
2018-04-15T02:48:42.286Z,107.20
2018-04-15T02:49:42.280Z,101.00
2018-04-15T02:50:21.236Z,97.40
2018-04-15T02:51:21.222Z,97.70
2018-04-15T02:52:21.191Z,105.80
2018-04-15T02:53:42.193Z,107.90
2018-04-15T02:54:42.178Z,108.90
2018-04-15T02:55:21.169Z,108.30
2018-04-15T02:56:21.198Z,115.20
2018-04-15T02:57:21.119Z,114.10
2018-04-15T02:58:42.100Z,108.80
2018-04-15T02:59:42.091Z,123.70
2018-04-15T03:00:21.067Z,125.50
2018-04-15T03:01:21.055Z,125.60
2018-04-15T03:02:21.079Z,116.50
2018-04-15T03:03:42.027Z,107.20
2018-04-15T03:04:42.011Z,97.40
2018-04-15T03:05:20.983Z,108.70
2018-04-15T03:06:20.986Z,113.20
2018-04-15T03:07:20.964Z,104.80
2018-04-15T03:08:41.938Z,111.00
2018-04-15T03:09:41.921Z,119.70
2018-04-15T03:10:20.899Z,125.80
2018-04-15T03:11:20.901Z,120.30
2018-04-15T03:12:20.879Z,116.50
2018-04-15T03:13:41.877Z,107.80
2018-04-15T03:14:41.860Z,109.90
2018-04-15T03:15:20.823Z,117.30
2018-04-15T03:16:20.806Z,111.60
2018-04-15T03:17:20.795Z,104.30
2018-04-15T03:18:41.794Z,112.20
2018-04-15T03:19:41.766Z,115.20
2018-04-15T03:20:20.742Z,115.30
2018-04-15T03:21:20.789Z,118.00
2018-04-15T03:22:20.710Z,111.60
2018-04-15T03:23:41.718Z,110.50
2018-04-15T03:24:41.675Z,111.60
2018-04-15T03:25:20.660Z,111.40
2018-04-15T03:26:20.647Z,110.40
2018-04-15T03:27:20.640Z,110.40
2018-04-15T03:28:41.624Z,114.00
2018-04-15T03:29:41.607Z,114.60
2018-04-15T03:30:20.576Z,113.30
2018-04-15T03:31:20.562Z,117.80
2018-04-15T03:32:20.552Z,120.00
2018-04-15T03:33:41.542Z,119.70
2018-04-15T03:34:41.513Z,120.10
2018-04-15T03:35:20.494Z,129.60
2018-04-15T03:36:20.477Z,129.10
2018-04-15T03:37:20.481Z,127.90
2018-04-15T03:38:41.461Z,121.80
2018-04-15T03:39:41.451Z,115.70
2018-04-15T03:40:20.416Z,117.10
2018-04-15T03:41:20.395Z,120.40
2018-04-15T03:42:20.394Z,116.80
2018-04-15T03:43:41.370Z,122.00
2018-04-15T03:44:41.350Z,119.50
2018-04-15T03:45:20.333Z,120.40
2018-04-15T03:46:20.319Z,114.40
2018-04-15T03:47:20.299Z,120.50
2018-04-15T03:48:41.285Z,134.80
2018-04-15T03:49:41.299Z,140.30
2018-04-15T03:50:20.255Z,136.80
2018-04-15T03:51:20.236Z,134.70
2018-04-15T03:52:20.220Z,137.90
2018-04-15T03:53:41.212Z,132.10
2018-04-15T03:54:41.184Z,135.20
2018-04-15T03:55:20.187Z,135.10
2018-04-15T03:56:20.154Z,138.80
2018-04-15T03:57:20.134Z,127.80
2018-04-15T03:58:41.129Z,134.60
2018-04-15T03:59:41.104Z,136.90
2018-04-15T04:00:20.102Z,133.10
2018-04-15T04:01:20.071Z,129.00
2018-04-15T04:02:20.065Z,138.90
2018-04-15T04:03:41.037Z,131.70
2018-04-15T04:04:41.031Z,131.40
2018-04-15T04:05:19.996Z,132.40
2018-04-15T04:06:20.005Z,127.50
2018-04-15T04:07:19.969Z,138.40
2018-04-15T04:08:41.007Z,139.80
2018-04-15T04:09:40.939Z,138.60
2018-04-15T04:10:19.927Z,138.40
2018-04-15T04:11:19.910Z,135.80
2018-04-15T04:12:19.888Z,139.40
2018-04-15T04:13:40.886Z,136.50
2018-04-15T04:14:40.849Z,139.50
2018-04-15T04:15:19.871Z,143.90
2018-04-15T04:16:19.818Z,166.20
2018-04-15T04:17:19.875Z,161.90
2018-04-15T04:18:40.783Z,150.80
2018-04-15T04:19:40.773Z,161.10
2018-04-15T04:20:19.753Z,166.50
2018-04-15T04:21:19.743Z,151.80
2018-04-15T04:22:19.712Z,161.90
2018-04-15T04:23:40.720Z,155.40
2018-04-15T04:24:40.695Z,153.70
2018-04-15T04:25:19.667Z,160.80
2018-04-15T04:26:19.690Z,170.90
2018-04-15T04:27:19.635Z,168.00
2018-04-15T04:28:40.625Z,168.20
2018-04-15T04:29:40.599Z,171.90
2018-04-15T04:30:19.585Z,189.00
2018-04-15T04:31:19.561Z,171.80
2018-04-15T04:32:19.549Z,176.70
2018-04-15T04:33:40.533Z,168.00
2018-04-15T04:34:40.524Z,176.00
2018-04-15T04:35:19.493Z,184.60
2018-04-15T04:36:19.496Z,183.40
2018-04-15T04:37:19.461Z,196.60
2018-04-15T04:38:40.516Z,192.90
2018-04-15T04:39:40.437Z,190.30
2018-04-15T04:40:19.421Z,199.40
2018-04-15T04:41:19.581Z,189.50
2018-04-15T04:42:19.377Z,187.80
2018-04-15T04:43:40.377Z,204.90
2018-04-15T04:44:40.341Z,210.20
2018-04-15T04:45:19.364Z,209.50
2018-04-15T04:46:19.314Z,207.50
2018-04-15T04:47:19.293Z,212.10
2018-04-15T04:48:40.286Z,226.70
2018-04-15T04:49:40.273Z,215.30
2018-04-15T04:50:19.246Z,207.90
2018-04-15T04:51:19.231Z,210.40
2018-04-15T04:52:19.202Z,215.30
2018-04-15T04:53:40.192Z,213.00
2018-04-15T04:54:40.190Z,216.40
2018-04-15T04:55:19.154Z,219.50
2018-04-15T04:56:19.142Z,217.90
2018-04-15T04:57:19.126Z,218.90
2018-04-15T04:58:40.099Z,229.20
2018-04-15T04:59:40.089Z,237.60
2018-04-15T05:00:19.069Z,240.50
2018-04-15T05:01:19.073Z,247.80
2018-04-15T05:02:19.047Z,233.70
2018-04-15T05:03:40.018Z,228.40
2018-04-15T05:04:40.017Z,247.30
2018-04-15T05:05:19.034Z,254.00
2018-04-15T05:06:18.966Z,261.70
2018-04-15T05:07:18.967Z,264.70
2018-04-15T05:08:39.948Z,254.90
2018-04-15T05:09:39.921Z,278.40
2018-04-15T05:10:18.889Z,261.20
2018-04-15T05:11:18.886Z,263.40
2018-04-15T05:12:18.862Z,262.70
2018-04-15T05:13:39.876Z,275.50
2018-04-15T05:14:39.847Z,278.70
2018-04-15T05:15:18.812Z,266.60
2018-04-15T05:16:18.795Z,284.40
2018-04-15T05:17:18.770Z,279.50
2018-04-15T05:18:39.753Z,280.90
2018-04-15T05:19:39.738Z,277.30
2018-04-15T05:20:18.738Z,281.10
2018-04-15T05:21:18.702Z,273.90
2018-04-15T05:22:18.684Z,276.80
2018-04-15T05:23:39.665Z,287.60
2018-04-15T05:24:39.658Z,296.40
2018-04-15T05:25:18.635Z,305.00
2018-04-15T05:26:18.614Z,295.90
2018-04-15T05:27:18.593Z,288.00
2018-04-15T05:28:39.584Z,299.50
2018-04-15T05:29:39.571Z,310.70
2018-04-15T05:30:18.541Z,288.90
2018-04-15T05:31:18.546Z,293.30
2018-04-15T05:32:18.546Z,321.00
2018-04-15T05:33:39.501Z,302.40
2018-04-15T05:34:39.470Z,313.00
2018-04-15T05:35:18.475Z,328.30
2018-04-15T05:36:18.448Z,325.80
2018-04-15T05:37:18.420Z,329.30
2018-04-15T05:38:39.405Z,336.90
2018-04-15T05:39:39.405Z,334.90
2018-04-15T05:40:18.377Z,349.80
2018-04-15T05:41:18.348Z,336.10
2018-04-15T05:42:18.332Z,336.60
2018-04-15T05:43:39.337Z,343.10
2018-04-15T05:44:39.295Z,340.20
2018-04-15T05:45:18.295Z,342.60
2018-04-15T05:46:18.270Z,340.50
2018-04-15T05:47:18.257Z,346.20
2018-04-15T05:48:39.288Z,352.70
2018-04-15T05:49:39.215Z,361.30
2018-04-15T05:50:18.198Z,357.10
2018-04-15T05:51:18.183Z,347.80
2018-04-15T05:52:18.167Z,350.50
2018-04-15T05:53:39.157Z,343.00
2018-04-15T05:54:39.131Z,348.10
2018-04-15T05:55:18.128Z,357.20
2018-04-15T05:56:18.095Z,334.10
2018-04-15T05:57:18.078Z,370.90
2018-04-15T05:58:39.055Z,368.40
2018-04-15T05:59:39.040Z,362.50
2018-04-15T06:00:18.023Z,366.10
2018-04-15T06:01:18.004Z,363.40
2018-04-15T06:02:17.984Z,354.20
2018-04-15T06:03:38.978Z,382.90
2018-04-15T06:04:38.950Z,369.20
2018-04-15T06:05:17.963Z,381.10
2018-04-15T06:06:17.915Z,378.50
2018-04-15T06:07:17.911Z,367.50
2018-04-15T06:08:38.885Z,364.00
2018-04-15T06:09:38.866Z,377.90
2018-04-15T06:10:17.881Z,376.10
2018-04-15T06:11:17.842Z,378.40
2018-04-15T06:12:17.818Z,365.80
2018-04-15T06:13:38.860Z,365.80
2018-04-15T06:14:38.790Z,364.70
2018-04-15T06:15:17.762Z,364.00
2018-04-15T06:16:17.754Z,350.80
2018-04-15T06:17:17.729Z,342.50
2018-04-15T06:18:38.740Z,364.30
2018-04-15T06:19:38.691Z,363.80
2018-04-15T06:20:17.670Z,366.70
2018-04-15T06:21:17.648Z,355.80
2018-04-15T06:22:17.646Z,356.90
2018-04-15T06:23:38.635Z,357.30
2018-04-15T06:24:38.706Z,369.60
2018-04-15T06:25:17.589Z,344.00
2018-04-15T06:26:17.576Z,333.80
2018-04-15T06:27:17.548Z,352.10
2018-04-15T06:28:38.544Z,360.50
2018-04-15T06:29:38.524Z,351.60
2018-04-15T06:30:17.504Z,365.90
2018-04-15T06:31:17.504Z,352.00
2018-04-15T06:32:17.469Z,366.20
2018-04-15T06:33:38.445Z,355.30
2018-04-15T06:34:38.440Z,358.30
2018-04-15T06:35:17.408Z,366.60
2018-04-15T06:36:17.400Z,368.50
2018-04-15T06:37:17.398Z,367.70
2018-04-15T06:38:38.397Z,365.50
2018-04-15T06:39:38.352Z,374.60
2018-04-15T06:40:17.323Z,360.30
2018-04-15T06:41:17.335Z,364.00
2018-04-15T06:42:17.293Z,366.50
2018-04-15T06:43:38.317Z,387.00
2018-04-15T06:44:38.299Z,373.40
2018-04-15T06:45:17.270Z,380.10
2018-04-15T06:46:17.238Z,367.30
2018-04-15T06:47:17.208Z,361.50
2018-04-15T06:48:38.204Z,377.50
2018-04-15T06:49:38.170Z,357.80
2018-04-15T06:50:17.183Z,351.50
2018-04-15T06:51:17.141Z,357.50
2018-04-15T06:52:17.122Z,362.70
2018-04-15T06:53:38.105Z,363.10
2018-04-15T06:54:38.101Z,346.10
2018-04-15T06:55:17.077Z,349.40
2018-04-15T06:56:17.072Z,345.70
2018-04-15T06:57:17.045Z,350.60
2018-04-15T06:58:38.021Z,358.60
2018-04-15T06:59:38.005Z,353.10
2018-04-15T07:00:16.986Z,345.50
2018-04-15T07:01:17.001Z,366.90
2018-04-15T07:02:16.977Z,346.50
2018-04-15T07:03:37.960Z,355.10
2018-04-15T07:04:37.946Z,349.60
2018-04-15T07:05:16.913Z,331.20
2018-04-15T07:06:16.885Z,350.40
2018-04-15T07:07:16.898Z,346.40
2018-04-15T07:08:37.866Z,344.20
2018-04-15T07:09:37.885Z,348.60
2018-04-15T07:10:16.817Z,353.10
2018-04-15T07:11:16.800Z,330.40
2018-04-15T07:12:16.787Z,335.10
2018-04-15T07:13:37.805Z,338.10
2018-04-15T07:14:37.746Z,321.90
2018-04-15T07:15:16.753Z,331.80
2018-04-15T07:16:16.714Z,312.90
2018-04-15T07:17:16.705Z,315.10
2018-04-15T07:18:37.692Z,318.80
2018-04-15T07:19:37.671Z,303.90
2018-04-15T07:20:16.654Z,314.40
2018-04-15T07:21:16.631Z,300.10
2018-04-15T07:22:16.627Z,307.10
2018-04-15T07:23:37.622Z,305.10
2018-04-15T07:24:37.588Z,285.00
2018-04-15T07:25:16.579Z,292.30
2018-04-15T07:26:16.546Z,282.30
2018-04-15T07:27:16.535Z,277.00
2018-04-15T07:28:37.524Z,270.40
2018-04-15T07:29:37.513Z,270.40
2018-04-15T07:30:16.490Z,267.40
2018-04-15T07:31:16.468Z,252.00
2018-04-15T07:32:16.457Z,251.90
2018-04-15T07:33:37.490Z,247.90
2018-04-15T07:34:37.419Z,241.40
2018-04-15T07:35:16.433Z,250.50
2018-04-15T07:36:16.384Z,235.50
2018-04-15T07:37:16.372Z,225.10
2018-04-15T07:38:37.351Z,200.10
2018-04-15T07:39:37.346Z,197.30
2018-04-15T07:40:16.327Z,194.60
2018-04-15T07:41:16.298Z,194.10
2018-04-15T07:42:16.285Z,193.40
2018-04-15T07:43:37.272Z,188.10
2018-04-15T07:44:37.253Z,188.40
2018-04-15T07:45:16.243Z,176.60
2018-04-15T07:46:16.215Z,176.40
2018-04-15T07:47:16.202Z,177.60
2018-04-15T07:48:37.198Z,165.10
2018-04-15T07:49:37.189Z,169.50
2018-04-15T07:50:16.163Z,176.40
2018-04-15T07:51:16.141Z,167.10
2018-04-15T07:52:16.123Z,165.80
2018-04-15T07:53:37.124Z,165.20
2018-04-15T07:54:37.104Z,157.20
2018-04-15T07:55:16.097Z,145.10
2018-04-15T07:56:16.079Z,158.80
2018-04-15T07:57:16.060Z,141.30
2018-04-15T07:58:37.034Z,150.20
2018-04-15T07:59:37.024Z,137.40
2018-04-15T08:00:16.000Z,141.10
2018-04-15T08:01:15.987Z,133.30
2018-04-15T08:02:15.996Z,122.50
2018-04-15T08:03:36.952Z,116.20
2018-04-15T08:04:36.948Z,122.10
2018-04-15T08:05:15.922Z,101.10
2018-04-15T08:06:15.914Z,106.50
2018-04-15T08:07:15.892Z,105.10
2018-04-15T08:08:36.880Z,98.20
2018-04-15T08:09:36.868Z,100.70
2018-04-15T08:10:15.835Z,90.30
2018-04-15T08:11:15.837Z,89.40
2018-04-15T08:12:15.807Z,78.00
2018-04-15T08:13:36.801Z,79.60
2018-04-15T08:14:36.794Z,76.00
2018-04-15T08:15:15.759Z,73.30
2018-04-15T08:16:15.749Z,68.30
2018-04-15T08:17:15.732Z,70.40
2018-04-15T08:18:36.732Z,74.00
2018-04-15T08:19:36.742Z,71.30
2018-04-15T08:20:15.696Z,68.30
2018-04-15T08:21:15.669Z,66.00
2018-04-15T08:22:15.664Z,58.10
2018-04-15T08:23:36.647Z,59.20
2018-04-15T08:24:36.634Z,52.30
2018-04-15T08:25:15.635Z,50.30
2018-04-15T08:26:15.632Z,44.80
2018-04-15T08:27:15.595Z,44.90
2018-04-15T08:28:36.578Z,42.50
2018-04-15T08:29:36.571Z,43.90
2018-04-15T08:30:15.532Z,41.50
2018-04-15T08:31:15.574Z,45.00
2018-04-15T08:32:15.518Z,40.80
2018-04-15T08:33:36.509Z,36.30
2018-04-15T08:34:36.491Z,33.10
2018-04-15T08:35:15.468Z,33.30
2018-04-15T08:36:15.457Z,33.20
2018-04-15T08:37:15.450Z,31.80
2018-04-15T08:38:36.461Z,37.40
2018-04-15T08:39:36.422Z,32.90
2018-04-15T08:40:15.419Z,34.50
2018-04-15T08:41:15.401Z,34.60
2018-04-15T08:42:15.374Z,25.60
2018-04-15T08:43:36.375Z,24.30
2018-04-15T08:44:36.364Z,26.30
2018-04-15T08:45:15.343Z,25.10
2018-04-15T08:46:15.371Z,22.40
2018-04-15T08:47:15.304Z,21.90
2018-04-15T08:48:36.318Z,22.90
2018-04-15T08:49:36.283Z,23.20
2018-04-15T08:50:15.284Z,24.70
2018-04-15T08:51:15.287Z,23.80
2018-04-15T08:52:15.288Z,25.70
2018-04-15T08:53:36.276Z,27.90
2018-04-15T08:54:36.238Z,24.90
2018-04-15T08:55:15.209Z,23.30
2018-04-15T08:56:15.189Z,24.20
2018-04-15T08:57:15.186Z,24.30
2018-04-15T08:58:36.171Z,22.30
2018-04-15T08:59:36.155Z,17.80
2018-04-15T09:00:15.135Z,17.70
2018-04-15T09:01:15.119Z,16.80
2018-04-15T09:02:15.158Z,21.00
2018-04-15T09:03:36.103Z,20.00
2018-04-15T09:04:36.108Z,18.70
2018-04-15T09:05:15.080Z,21.00
2018-04-15T09:06:15.069Z,21.00
2018-04-15T09:07:15.087Z,20.10
2018-04-15T09:08:36.036Z,19.20
2018-04-15T09:09:36.025Z,19.70
2018-04-15T09:10:15.054Z,18.80
2018-04-15T09:11:15.019Z,20.10
2018-04-15T09:12:14.981Z,21.60
2018-04-15T09:13:36.033Z,19.50
2018-04-15T09:14:35.956Z,19.50
2018-04-15T09:15:14.942Z,18.60
2018-04-15T09:16:14.929Z,20.60
2018-04-15T09:17:14.947Z,15.90
2018-04-15T09:18:35.902Z,14.70
2018-04-15T09:19:35.894Z,15.80
2018-04-15T09:20:14.882Z,13.90
2018-04-15T09:21:14.861Z,14.80
2018-04-15T09:22:14.842Z,12.80
2018-04-15T09:23:35.870Z,11.40
2018-04-15T09:24:35.831Z,11.20
2018-04-15T09:25:14.821Z,11.80
2018-04-15T09:26:14.794Z,12.40
2018-04-15T09:27:14.803Z,11.40
2018-04-15T09:28:35.768Z,13.90
2018-04-15T09:29:35.775Z,12.70
2018-04-15T09:30:14.738Z,13.70
2018-04-15T09:31:14.724Z,12.00
2018-04-15T09:32:14.731Z,12.20
2018-04-15T09:33:35.720Z,11.40
2018-04-15T09:34:35.685Z,13.60
2018-04-15T09:35:14.668Z,12.00
2018-04-15T09:36:14.657Z,12.60
2018-04-15T09:37:14.648Z,11.60
2018-04-15T09:38:35.636Z,11.50
2018-04-15T09:39:35.641Z,9.20
2018-04-15T09:40:14.600Z,9.30
2018-04-15T09:41:14.600Z,9.60
2018-04-15T09:42:14.576Z,11.10
2018-04-15T09:43:35.582Z,9.60
2018-04-15T09:44:35.545Z,9.20
2018-04-15T09:45:14.543Z,9.20
2018-04-15T09:46:14.524Z,9.00
2018-04-15T09:47:14.527Z,9.40
2018-04-15T09:48:35.500Z,7.50
2018-04-15T09:49:35.516Z,10.10
2018-04-15T09:50:14.467Z,10.40
2018-04-15T09:51:14.459Z,10.40
2018-04-15T09:52:14.453Z,11.60
2018-04-15T09:53:35.429Z,13.80
2018-04-15T09:54:35.448Z,12.40
2018-04-15T09:55:14.400Z,13.10
2018-04-15T09:56:14.388Z,12.10
2018-04-15T09:57:14.386Z,11.60
2018-04-15T09:58:35.368Z,13.00
2018-04-15T09:59:35.368Z,11.50
2018-04-15T10:00:14.330Z,12.60
2018-04-15T10:01:14.308Z,12.20
2018-04-15T10:02:14.306Z,13.50
2018-04-15T10:03:35.305Z,12.60
2018-04-15T10:04:35.273Z,12.60
2018-04-15T10:05:14.290Z,11.30
2018-04-15T10:06:14.249Z,13.30
2018-04-15T10:07:14.232Z,14.30
2018-04-15T10:08:35.240Z,12.10
2018-04-15T10:09:35.214Z,10.80
2018-04-15T10:10:14.224Z,11.50
2018-04-15T10:11:14.179Z,12.70
2018-04-15T10:12:14.169Z,11.10
2018-04-15T10:13:35.169Z,9.80
2018-04-15T10:14:35.157Z,12.10
2018-04-15T10:15:14.128Z,10.80
2018-04-15T10:16:14.111Z,8.00
2018-04-15T10:17:14.103Z,8.50
2018-04-15T10:18:35.090Z,8.80
2018-04-15T10:19:35.071Z,8.80
2018-04-15T10:20:14.072Z,8.40
2018-04-15T10:21:14.048Z,9.70
2018-04-15T10:22:14.064Z,8.70
2018-04-15T10:23:35.020Z,7.40
2018-04-15T10:24:35.013Z,8.70
2018-04-15T10:25:13.996Z,7.90
2018-04-15T10:26:13.978Z,7.10
2018-04-15T10:27:13.977Z,8.40
2018-04-15T10:28:34.967Z,7.20
2018-04-15T10:29:34.964Z,9.20
2018-04-15T10:30:13.953Z,10.90
2018-04-15T10:31:13.931Z,9.60
2018-04-15T10:32:13.905Z,7.50
2018-04-15T10:33:34.899Z,10.30
2018-04-15T10:34:34.889Z,8.00
2018-04-15T10:35:13.883Z,7.90
2018-04-15T10:36:13.858Z,8.10
2018-04-15T10:37:13.859Z,8.50
2018-04-15T10:38:34.829Z,8.70
2018-04-15T10:39:34.826Z,7.30
2018-04-15T10:40:13.804Z,8.50
2018-04-15T10:41:13.818Z,6.60
2018-04-15T10:42:13.807Z,5.40
2018-04-15T10:43:34.792Z,6.60
2018-04-15T10:44:34.779Z,7.60
2018-04-15T10:45:13.754Z,9.70
2018-04-15T10:46:13.786Z,6.30
2018-04-15T10:47:13.769Z,6.10
2018-04-15T10:48:34.715Z,6.30
2018-04-15T10:49:34.704Z,5.50
2018-04-15T10:50:13.724Z,5.60
2018-04-15T10:51:13.674Z,5.90
2018-04-15T10:52:13.664Z,4.90
2018-04-15T10:53:34.664Z,5.60
2018-04-15T10:54:34.670Z,5.70
2018-04-15T10:55:13.632Z,6.80
2018-04-15T10:56:13.636Z,6.20
2018-04-15T10:57:13.597Z,6.20
2018-04-15T10:58:34.591Z,5.90
2018-04-15T10:59:34.684Z,5.70
2018-04-15T11:00:13.560Z,5.80
2018-04-15T11:01:13.551Z,5.70
2018-04-15T11:02:13.533Z,6.20
2018-04-15T11:03:34.535Z,5.90
2018-04-15T11:04:34.523Z,4.70
2018-04-15T11:05:13.551Z,5.60
2018-04-15T11:06:13.502Z,5.40
2018-04-15T11:07:13.487Z,4.70
2018-04-15T11:08:34.485Z,5.00
2018-04-15T11:09:34.473Z,4.20
2018-04-15T11:10:13.460Z,4.60
2018-04-15T11:11:13.433Z,5.30
2018-04-15T11:12:13.434Z,5.00
2018-04-15T11:13:34.438Z,4.40
2018-04-15T11:14:34.408Z,5.70
2018-04-15T11:15:13.437Z,5.60
2018-04-15T11:16:13.371Z,4.60
2018-04-15T11:17:13.423Z,4.70
2018-04-15T11:18:34.346Z,4.50
2018-04-15T11:19:34.347Z,4.80
2018-04-15T11:20:13.335Z,5.00
2018-04-15T11:21:13.307Z,6.00
2018-04-15T11:22:13.305Z,4.40
2018-04-15T11:23:34.308Z,4.90
2018-04-15T11:24:34.312Z,4.80
2018-04-15T11:25:13.275Z,3.90
2018-04-15T11:26:13.247Z,4.60
2018-04-15T11:27:13.269Z,5.40
2018-04-15T11:28:34.230Z,5.10
2018-04-15T11:29:34.216Z,5.80
2018-04-15T11:30:13.228Z,3.70
2018-04-15T11:31:13.221Z,3.40
2018-04-15T11:32:13.181Z,4.40
2018-04-15T11:33:34.167Z,5.10
2018-04-15T11:34:34.155Z,5.30
2018-04-15T11:35:13.162Z,4.10
2018-04-15T11:36:13.129Z,5.00
2018-04-15T11:37:13.149Z,3.90
2018-04-15T11:38:34.106Z,5.40
2018-04-15T11:39:34.098Z,4.40
2018-04-15T11:40:13.111Z,4.50
2018-04-15T11:41:13.074Z,5.20
2018-04-15T11:42:13.074Z,4.10
2018-04-15T11:43:34.059Z,3.90
2018-04-15T11:44:34.048Z,4.20
2018-04-15T11:45:13.025Z,4.30
2018-04-15T11:46:13.007Z,4.50
2018-04-15T11:47:12.999Z,6.50
2018-04-15T11:48:34.044Z,7.20
2018-04-15T11:49:34.004Z,4.20
2018-04-15T11:50:12.951Z,4.80
2018-04-15T11:51:12.965Z,5.10
2018-04-15T11:52:12.952Z,4.40
2018-04-15T11:53:33.920Z,4.90
2018-04-15T11:54:33.947Z,4.10
2018-04-15T11:55:12.896Z,4.20
2018-04-15T11:56:12.946Z,4.50
2018-04-15T11:57:12.870Z,6.80
2018-04-15T11:58:33.897Z,5.70
2018-04-15T11:59:33.844Z,8.00
2018-04-15T12:00:12.824Z,4.90
2018-04-15T12:01:12.809Z,4.60
2018-04-15T12:02:12.844Z,3.90
2018-04-15T12:03:33.800Z,4.30
2018-04-15T12:04:33.778Z,5.80
2018-04-15T12:05:12.765Z,4.60
2018-04-15T12:06:12.747Z,4.20
2018-04-15T12:07:12.743Z,4.90
2018-04-15T12:08:33.734Z,6.60
2018-04-15T12:09:33.748Z,4.70
2018-04-15T12:10:12.710Z,4.60
2018-04-15T12:11:12.700Z,6.10
2018-04-15T12:12:12.676Z,4.40
2018-04-15T12:13:33.679Z,4.90
2018-04-15T12:14:33.675Z,3.70
2018-04-15T12:15:12.641Z,4.50
2018-04-15T12:16:12.651Z,4.10
2018-04-15T12:17:12.691Z,5.10
2018-04-15T12:18:33.627Z,6.50
2018-04-15T12:19:33.619Z,5.00
2018-04-15T12:20:12.595Z,4.60
2018-04-15T12:21:12.575Z,4.50
2018-04-15T12:22:12.574Z,3.90
2018-04-15T12:23:33.556Z,4.40
2018-04-15T12:24:33.558Z,4.50
2018-04-15T12:25:12.528Z,4.90
2018-04-15T12:26:12.525Z,4.50
2018-04-15T12:27:12.515Z,5.10
2018-04-15T12:28:33.553Z,4.60
2018-04-15T12:29:33.523Z,3.80
2018-04-15T12:30:12.469Z,3.80
2018-04-15T12:31:12.476Z,5.00
2018-04-15T12:32:12.453Z,6.20
2018-04-15T12:33:33.454Z,5.30
2018-04-15T12:34:33.457Z,6.40
2018-04-15T12:35:12.426Z,3.40
2018-04-15T12:36:12.406Z,4.00
2018-04-15T12:37:12.405Z,5.70
2018-04-15T12:38:33.402Z,4.90
2018-04-15T12:39:33.386Z,4.40
2018-04-15T12:40:12.371Z,5.20
2018-04-15T12:41:12.357Z,5.80
2018-04-15T12:42:12.334Z,4.40
2018-04-15T12:43:33.334Z,6.20
2018-04-15T12:44:33.337Z,4.70
2018-04-15T12:45:12.303Z,4.60
2018-04-15T12:46:12.306Z,5.40
2018-04-15T12:47:12.310Z,4.80